createdAt,value
2022-08-03T00:00:44.108Z,44.62
2022-08-03T00:03:13.448Z,44.96
2022-08-03T00:06:03.929Z,45.10
2022-08-03T00:08:31.985Z,44.88
2022-08-03T00:11:02.015Z,44.91
2022-08-03T00:13:31.396Z,44.66
2022-08-03T00:16:00.919Z,44.64
2022-08-03T00:18:30.160Z,44.71
2022-08-03T00:20:59.582Z,44.86
2022-08-03T00:23:33.327Z,45.01
2022-08-03T00:26:18.273Z,45.35
2022-08-03T00:28:47.617Z,44.66
2022-08-03T00:31:16.926Z,45.04
2022-08-03T00:34:03.307Z,44.58
2022-08-03T00:36:32.992Z,45.02
2022-08-03T00:39:02.451Z,44.27
2022-08-03T00:41:31.738Z,43.70
2022-08-03T00:44:00.946Z,43.97
2022-08-03T00:46:30.252Z,43.85
2022-08-03T00:48:59.557Z,43.19
2022-08-03T00:51:29.096Z,42.71
2022-08-03T00:53:58.973Z,42.60
2022-08-03T00:56:29.085Z,42.85
2022-08-03T00:59:00.093Z,42.84
2022-08-03T01:01:32.476Z,43.54
2022-08-03T01:04:02.129Z,44.29
2022-08-03T01:06:42.821Z,43.97
2022-08-03T01:09:17.252Z,43.92
2022-08-03T01:12:00.673Z,44.65
2022-08-03T01:14:44.239Z,45.50
2022-08-03T01:17:22.568Z,46.01
2022-08-03T01:20:15.064Z,46.73
2022-08-03T01:23:10.133Z,46.90
2022-08-03T01:25:48.526Z,46.34
2022-08-03T01:28:44.883Z,46.07
2022-08-03T01:31:17.060Z,45.92
2022-08-03T01:33:51.086Z,45.70
2022-08-03T01:36:26.531Z,45.60
2022-08-03T01:39:02.498Z,44.59
2022-08-03T01:41:35.575Z,44.64
2022-08-03T01:44:28.013Z,44.03
2022-08-03T01:46:57.526Z,43.96
2022-08-03T01:49:26.857Z,44.28
2022-08-03T01:52:03.028Z,44.09
2022-08-03T01:54:39.642Z,44.58
2022-08-03T01:57:09.143Z,44.15
2022-08-03T01:59:39.735Z,44.06
2022-08-03T02:02:29.758Z,44.31
2022-08-03T02:05:01.113Z,44.25
2022-08-03T02:07:31.780Z,44.13
2022-08-03T02:10:02.013Z,43.42
2022-08-03T02:12:32.326Z,43.73
2022-08-03T02:15:02.323Z,44.40
2022-08-03T02:17:39.832Z,44.07
2022-08-03T02:20:13.789Z,45.11
2022-08-03T02:22:44.607Z,44.34
2022-08-03T02:25:15.811Z,44.87
2022-08-03T02:27:58.411Z,45.54
2022-08-03T02:30:35.575Z,45.52
2022-08-03T02:33:05.255Z,45.40
2022-08-03T02:35:35.295Z,44.29
2022-08-03T02:38:06.406Z,44.39
2022-08-03T02:40:36.319Z,43.48
2022-08-03T02:43:09.830Z,43.53
2022-08-03T02:45:45.645Z,43.80
2022-08-03T02:48:19.584Z,43.75
2022-08-03T02:50:50.238Z,43.54
2022-08-03T02:53:20.398Z,43.68
2022-08-03T02:55:50.702Z,45.27
2022-08-03T02:58:24.309Z,46.07
2022-08-03T03:00:57.159Z,46.10
2022-08-03T03:03:28.232Z,47.16
2022-08-03T03:06:01.775Z,48.11
2022-08-03T03:08:35.687Z,47.42
2022-08-03T03:11:09.947Z,46.06
2022-08-03T03:13:39.589Z,45.85
2022-08-03T03:16:09.327Z,45.76
2022-08-03T03:18:39.188Z,45.61
2022-08-03T03:21:11.853Z,45.46
2022-08-03T03:23:43.205Z,45.06
2022-08-03T03:26:12.737Z,44.65
2022-08-03T03:28:42.219Z,45.30
2022-08-03T03:31:12.269Z,45.03
2022-08-03T03:33:41.724Z,44.98
2022-08-03T03:36:11.186Z,45.63
2022-08-03T03:38:40.564Z,45.06
2022-08-03T03:41:11.077Z,45.11
2022-08-03T03:43:40.527Z,45.65
2022-08-03T03:46:09.948Z,45.08
2022-08-03T03:48:39.302Z,44.08
2022-08-03T03:51:10.523Z,44.13
2022-08-03T03:53:40.598Z,45.12
2022-08-03T03:56:10.016Z,45.17
2022-08-03T03:58:39.506Z,45.75
2022-08-03T04:01:10.001Z,45.35
2022-08-03T04:03:39.650Z,45.43
2022-08-03T04:06:27.013Z,45.19
2022-08-03T04:09:14.327Z,45.74
2022-08-03T04:11:55.651Z,45.10
2022-08-03T04:14:26.978Z,45.65
2022-08-03T04:17:04.483Z,45.14
2022-08-03T04:19:40.759Z,44.73
2022-08-03T04:22:13.938Z,44.82
2022-08-03T04:25:10.808Z,44.78
2022-08-03T04:27:42.935Z,44.76
2022-08-03T04:30:12.921Z,45.13
2022-08-03T04:32:45.957Z,44.37
2022-08-03T04:35:15.630Z,44.85
2022-08-03T04:37:50.324Z,45.15
2022-08-03T04:40:39.333Z,44.64
2022-08-03T04:43:11.155Z,45.50
2022-08-03T04:45:41.098Z,45.50
2022-08-03T04:48:10.512Z,44.92
2022-08-03T04:50:40.229Z,44.91
2022-08-03T04:53:10.233Z,45.77
2022-08-03T04:55:40.044Z,45.39
2022-08-03T04:58:09.385Z,45.67
2022-08-03T05:00:38.778Z,45.72
2022-08-03T05:03:23.485Z,45.55
2022-08-03T05:06:01.879Z,45.59
2022-08-03T05:08:46.895Z,45.43
2022-08-03T05:11:19.268Z,45.89
2022-08-03T05:13:48.719Z,45.64
2022-08-03T05:16:18.007Z,45.30
2022-08-03T05:18:47.351Z,45.29
2022-08-03T05:21:18.164Z,45.39
2022-08-03T05:23:47.439Z,45.31
2022-08-03T05:26:16.801Z,45.63
2022-08-03T05:28:51.046Z,46.05
2022-08-03T05:31:21.405Z,46.50
2022-08-03T05:33:50.877Z,46.76
2022-08-03T05:36:20.072Z,46.21
2022-08-03T05:38:49.255Z,46.06
2022-08-03T05:41:20.452Z,45.39
2022-08-03T05:43:59.424Z,45.15
2022-08-03T05:46:31.760Z,46.01
2022-08-03T05:49:01.447Z,46.82
2022-08-03T05:51:30.858Z,47.35
2022-08-03T05:54:00.431Z,46.82
2022-08-03T05:56:30.408Z,46.60
2022-08-03T05:59:11.391Z,46.70
2022-08-03T06:01:49.832Z,46.60
2022-08-03T06:04:19.391Z,46.77
2022-08-03T06:06:49.639Z,47.18
2022-08-03T06:09:19.603Z,46.92
2022-08-03T06:11:49.023Z,47.56
2022-08-03T06:17:03.868Z,46.80
2022-08-03T06:19:33.097Z,46.98
2022-08-03T06:22:02.335Z,46.48
2022-08-03T06:24:32.711Z,46.77
2022-08-03T06:27:02.076Z,47.17
2022-08-03T06:29:31.305Z,47.54
2022-08-03T06:32:00.616Z,48.19
2022-08-03T06:34:34.095Z,47.83
2022-08-03T06:37:04.893Z,47.80
2022-08-03T06:39:35.750Z,47.80
2022-08-03T06:42:05.439Z,47.65
2022-08-03T06:44:34.657Z,48.35
2022-08-03T06:47:04.397Z,47.99
2022-08-03T06:49:33.794Z,47.90
2022-08-03T06:52:06.884Z,48.92
2022-08-03T06:54:37.042Z,48.90
2022-08-03T06:57:06.864Z,48.88
2022-08-03T07:00:09.141Z,49.30
2022-08-03T07:02:28.379Z,49.32
2022-08-03T07:04:58.128Z,49.67
2022-08-03T07:07:27.479Z,49.07
2022-08-03T07:09:58.257Z,49.71
2022-08-03T07:12:29.243Z,49.16
2022-08-03T07:15:01.903Z,49.37
2022-08-03T07:17:33.799Z,49.93
2022-08-03T07:20:04.438Z,51.94
2022-08-03T07:22:33.759Z,52.61
2022-08-03T07:25:03.204Z,53.11
2022-08-03T07:27:32.686Z,52.39
2022-08-03T07:30:02.456Z,51.64
2022-08-03T07:32:32.675Z,53.58
2022-08-03T07:35:02.767Z,53.53
2022-08-03T07:37:38.008Z,54.21
2022-08-03T07:40:07.980Z,53.92
2022-08-03T07:42:37.772Z,54.33
2022-08-03T07:45:09.513Z,53.84
2022-08-03T07:47:46.176Z,53.98
2022-08-03T07:50:23.758Z,54.71
2022-08-03T07:52:54.880Z,55.34
2022-08-03T07:55:26.639Z,55.92
2022-08-03T07:58:06.181Z,55.60
2022-08-03T08:00:36.083Z,56.68
2022-08-03T08:03:05.792Z,56.47
2022-08-03T08:05:35.323Z,57.03
2022-08-03T08:08:05.368Z,61.18
2022-08-03T08:10:35.178Z,59.20
2022-08-03T08:13:05.190Z,59.38
2022-08-03T08:15:34.553Z,58.96
2022-08-03T08:18:05.044Z,58.08
2022-08-03T08:20:38.045Z,57.04
2022-08-03T08:23:27.626Z,56.48
2022-08-03T08:25:59.710Z,56.72
2022-08-03T08:28:33.498Z,56.69
2022-08-03T08:31:04.250Z,56.77
2022-08-03T08:34:01.472Z,58.18
2022-08-03T08:36:25.785Z,59.53
2022-08-03T08:38:55.086Z,59.79
2022-08-03T08:41:24.479Z,59.81
2022-08-03T08:44:03.502Z,59.79
2022-08-03T08:46:36.962Z,60.12
2022-08-03T08:49:06.758Z,60.20
2022-08-03T08:51:54.427Z,60.80
2022-08-03T08:54:35.555Z,60.80
2022-08-03T08:57:21.361Z,61.93
2022-08-03T08:59:59.124Z,61.40
2022-08-03T09:02:32.169Z,61.12
2022-08-03T09:05:06.851Z,61.53
2022-08-03T09:07:36.893Z,62.26
2022-08-03T09:10:12.952Z,61.91
2022-08-03T09:12:50.899Z,62.20
2022-08-03T09:15:26.569Z,62.50
2022-08-03T09:17:58.442Z,62.77
2022-08-03T09:20:30.287Z,62.76
2022-08-03T09:23:09.045Z,62.79
2022-08-03T09:25:48.158Z,62.99
2022-08-03T09:28:52.774Z,63.11
2022-08-03T09:31:10.048Z,63.02
2022-08-03T09:33:50.221Z,62.91
2022-08-03T09:36:46.121Z,63.34
2022-08-03T09:39:19.506Z,63.41
2022-08-03T09:42:23.569Z,63.67
2022-08-03T09:44:54.248Z,63.62
2022-08-03T09:47:34.899Z,63.97
2022-08-03T09:50:07.715Z,64.13
2022-08-03T09:52:51.960Z,63.88
2022-08-03T09:56:35.081Z,64.06
2022-08-03T09:58:13.968Z,63.68
2022-08-03T10:00:59.986Z,64.12
2022-08-03T10:04:02.779Z,63.93
2022-08-03T10:06:29.331Z,64.20
2022-08-03T10:09:15.210Z,63.83
2022-08-03T10:11:45.669Z,63.91
2022-08-03T10:14:21.464Z,64.21
2022-08-03T10:16:51.388Z,64.28
2022-08-03T10:19:20.670Z,64.25
2022-08-03T10:21:52.813Z,63.80
2022-08-03T10:24:28.937Z,64.21
2022-08-03T10:27:09.892Z,63.79
2022-08-03T10:29:48.056Z,64.03
2022-08-03T10:32:27.679Z,63.96
2022-08-03T10:35:19.948Z,63.90
2022-08-03T10:38:16.297Z,64.12
2022-08-03T10:40:49.318Z,64.09
2022-08-03T10:43:52.823Z,63.91
2022-08-03T10:46:23.720Z,64.22
2022-08-03T10:48:54.085Z,63.62
2022-08-03T10:51:24.432Z,63.96
2022-08-03T10:53:55.855Z,64.24
2022-08-03T10:57:13.355Z,65.07
2022-08-03T10:59:52.319Z,65.87
2022-08-03T11:02:21.528Z,60.97
2022-08-03T11:05:33.420Z,57.18
2022-08-03T11:08:29.643Z,58.77
2022-08-03T11:11:04.504Z,56.38
2022-08-03T11:13:34.997Z,54.62
2022-08-03T11:16:08.570Z,54.09
2022-08-03T11:18:58.577Z,54.06
2022-08-03T11:21:51.688Z,53.08
2022-08-03T11:24:42.092Z,52.79
2022-08-03T11:27:20.741Z,54.98
2022-08-03T11:30:09.982Z,55.58
2022-08-03T11:32:46.842Z,54.39
2022-08-03T11:35:24.227Z,53.42
2022-08-03T11:38:05.331Z,52.72
2022-08-03T11:40:48.054Z,52.63
2022-08-03T11:43:32.344Z,52.81
2022-08-03T11:46:05.712Z,53.12
2022-08-03T11:48:48.436Z,53.38
2022-08-03T11:51:26.882Z,52.67
2022-08-03T11:54:01.680Z,53.02
2022-08-03T11:56:49.551Z,52.94
2022-08-03T11:59:22.543Z,52.56
2022-08-03T12:01:52.465Z,52.60
2022-08-03T12:04:21.835Z,52.68
2022-08-03T12:07:02.701Z,52.54
2022-08-03T12:09:32.183Z,52.00
2022-08-03T12:12:01.503Z,52.79
2022-08-03T12:14:48.862Z,52.28
2022-08-03T12:17:21.194Z,52.07
2022-08-03T12:19:50.626Z,52.37
2022-08-03T12:22:42.306Z,52.22
2022-08-03T12:25:12.320Z,52.36
2022-08-03T12:27:41.865Z,52.73
2022-08-03T12:30:12.144Z,52.82
2022-08-03T12:32:41.712Z,52.94
2022-08-03T12:35:11.396Z,52.87
2022-08-03T12:37:41.050Z,52.91
2022-08-03T12:40:15.186Z,53.13
2022-08-03T12:42:47.194Z,53.65
2022-08-03T12:45:24.857Z,53.13
2022-08-03T12:47:59.688Z,53.10
2022-08-03T12:50:28.932Z,53.85
2022-08-03T12:52:59.109Z,53.23
2022-08-03T12:55:57.284Z,53.70
2022-08-03T12:58:38.561Z,53.60
2022-08-03T13:01:10.839Z,52.74
2022-08-03T13:03:45.873Z,52.71
2022-08-03T13:06:25.376Z,53.55
2022-08-03T13:09:08.516Z,53.02
2022-08-03T13:11:55.523Z,52.33
2022-08-03T13:14:27.471Z,52.56
2022-08-03T13:16:56.875Z,52.28
2022-08-03T13:19:26.446Z,52.01
2022-08-03T13:22:03.954Z,52.72
2022-08-03T13:24:35.157Z,51.87
2022-08-03T13:28:01.698Z,51.46
2022-08-03T13:29:59.689Z,52.40
2022-08-03T13:32:29.214Z,52.28
2022-08-03T13:34:58.630Z,51.76
2022-08-03T13:37:28.486Z,51.68
2022-08-03T13:40:02.226Z,50.95
2022-08-03T13:42:34.040Z,50.70
2022-08-03T13:45:04.350Z,50.72
2022-08-03T13:47:33.873Z,51.05
2022-08-03T13:50:05.098Z,50.74
2022-08-03T13:52:38.817Z,50.99
2022-08-03T13:55:11.672Z,50.90
2022-08-03T13:58:03.731Z,50.94
2022-08-03T14:00:30.371Z,51.31
2022-08-03T14:03:17.596Z,50.89
2022-08-03T14:05:46.992Z,51.66
2022-08-03T14:08:17.095Z,51.44
2022-08-03T14:10:47.343Z,50.94
2022-08-03T14:13:20.201Z,51.40
2022-08-03T14:15:52.014Z,50.88
2022-08-03T14:18:28.384Z,51.23
2022-08-03T14:21:06.878Z,51.04
2022-08-03T14:23:39.419Z,50.71
2022-08-03T14:26:09.472Z,50.11
2022-08-03T14:28:43.323Z,50.02
2022-08-03T14:32:09.476Z,50.04
2022-08-03T14:34:02.623Z,49.60
2022-08-03T14:36:33.003Z,49.18
2022-08-03T14:39:04.105Z,50.00
2022-08-03T14:41:33.479Z,50.18
2022-08-03T14:44:02.852Z,50.40
2022-08-03T14:46:33.869Z,50.20
2022-08-03T14:50:30.778Z,50.47
2022-08-03T14:52:03.299Z,50.17
2022-08-03T14:54:39.019Z,50.54
2022-08-03T14:57:09.866Z,50.65
2022-08-03T14:59:55.561Z,50.90
2022-08-03T15:02:29.670Z,50.50
2022-08-03T15:04:59.098Z,50.93
2022-08-03T15:07:29.684Z,50.51
2022-08-03T15:09:59.004Z,50.57
2022-08-03T15:12:28.772Z,50.60
2022-08-03T15:15:02.660Z,50.75
2022-08-03T15:17:32.308Z,50.78
2022-08-03T15:20:23.356Z,51.02
2022-08-03T15:22:54.114Z,51.14
2022-08-03T15:26:27.885Z,51.19
2022-08-03T15:28:13.886Z,51.31
2022-08-03T15:30:43.548Z,51.51
2022-08-03T15:33:16.293Z,51.52
2022-08-03T15:35:46.263Z,51.64
2022-08-03T15:38:19.335Z,51.92
2022-08-03T15:40:48.872Z,52.03
2022-08-03T15:43:18.397Z,51.94
2022-08-03T15:46:12.669Z,52.48
2022-08-03T15:48:43.020Z,52.40
2022-08-03T15:51:17.194Z,52.67
2022-08-03T15:53:49.743Z,52.58
2022-08-03T15:56:20.344Z,52.79
2022-08-03T15:59:03.925Z,52.92
2022-08-03T16:01:43.761Z,52.99
2022-08-03T16:04:19.942Z,53.05
2022-08-03T16:06:49.701Z,53.21
2022-08-03T16:09:23.407Z,53.16
2022-08-03T16:12:15.741Z,53.43
2022-08-03T16:14:55.438Z,53.65
2022-08-03T16:17:25.706Z,53.39
2022-08-03T16:19:58.195Z,53.37
2022-08-03T16:22:28.009Z,53.56
2022-08-03T16:24:58.522Z,53.45
2022-08-03T16:27:56.804Z,53.44
2022-08-03T16:30:21.528Z,53.61
2022-08-03T16:32:54.851Z,53.66
2022-08-03T16:35:26.391Z,53.82
2022-08-03T16:37:56.485Z,53.96
2022-08-03T16:40:26.608Z,53.84
2022-08-03T16:42:56.027Z,54.13
2022-08-03T16:45:25.786Z,54.11
2022-08-03T16:48:01.575Z,53.84
2022-08-03T16:50:34.793Z,54.03
2022-08-03T16:53:09.162Z,54.00
2022-08-03T16:55:43.480Z,53.82
2022-08-03T16:58:41.322Z,53.84
2022-08-03T17:01:22.299Z,54.22
2022-08-03T17:04:01.438Z,54.05
2022-08-03T17:06:34.499Z,54.23
2022-08-03T17:09:08.334Z,54.18
2022-08-03T17:11:47.169Z,54.28
2022-08-03T17:14:21.913Z,54.23
2022-08-03T17:16:58.483Z,53.99
2022-08-03T17:19:27.877Z,53.93
2022-08-03T17:22:21.370Z,53.93
2022-08-03T17:24:59.880Z,54.12
2022-08-03T17:28:51.024Z,54.16
2022-08-03T17:30:48.007Z,54.31
2022-08-03T17:33:20.585Z,54.41
2022-08-03T17:35:54.663Z,54.22
2022-08-03T17:38:31.854Z,54.34
2022-08-03T17:41:10.826Z,54.34
2022-08-03T17:44:15.838Z,54.26
2022-08-03T17:47:03.122Z,54.42
2022-08-03T17:50:05.535Z,54.45
2022-08-03T17:52:42.469Z,54.29
2022-08-03T17:55:56.495Z,54.59
2022-08-03T17:58:35.608Z,54.46
2022-08-03T18:02:02.007Z,54.49
2022-08-03T18:04:15.076Z,54.67
2022-08-03T18:06:56.238Z,54.62
2022-08-03T18:10:05.801Z,54.61
2022-08-03T18:12:28.583Z,54.48
2022-08-03T18:15:07.663Z,54.69
2022-08-03T18:17:55.636Z,54.50
2022-08-03T18:20:34.156Z,54.60
2022-08-03T18:23:09.807Z,54.61
2022-08-03T18:25:50.059Z,54.82
2022-08-03T18:28:24.494Z,54.44
2022-08-03T18:30:56.837Z,54.94
2022-08-03T18:34:17.195Z,54.91
2022-08-03T18:36:30.404Z,54.88
2022-08-03T18:39:02.740Z,54.75
2022-08-03T18:41:35.077Z,54.58
2022-08-03T18:44:09.664Z,54.80
2022-08-03T18:47:17.418Z,54.71
2022-08-03T18:49:50.392Z,54.64
2022-08-03T18:52:27.637Z,54.78
2022-08-03T18:55:20.243Z,54.59
2022-08-03T18:58:17.607Z,54.72
2022-08-03T19:02:00.882Z,54.76
2022-08-03T19:04:38.224Z,54.65
2022-08-03T19:07:13.044Z,54.58
2022-08-03T19:09:50.857Z,54.81
2022-08-03T19:12:28.181Z,54.84
2022-08-03T19:17:53.127Z,54.76
2022-08-03T19:20:27.431Z,54.46
2022-08-03T19:22:58.796Z,54.81
2022-08-03T19:25:34.983Z,54.97
2022-08-03T19:28:07.235Z,54.84
2022-08-03T19:30:39.493Z,54.81
2022-08-03T19:33:13.887Z,54.61
2022-08-03T19:35:55.565Z,54.41
2022-08-03T19:38:29.431Z,54.99
2022-08-03T19:41:04.446Z,54.74
2022-08-03T19:43:49.571Z,54.61
2022-08-03T19:46:30.369Z,54.49
2022-08-03T19:49:10.572Z,54.62
2022-08-03T19:52:01.827Z,54.92
2022-08-03T19:54:54.600Z,54.77
2022-08-03T19:57:28.803Z,54.84
2022-08-03T19:59:59.463Z,54.59
2022-08-03T20:02:34.859Z,54.97
2022-08-03T20:05:04.450Z,52.58
2022-08-03T20:07:47.825Z,47.71
2022-08-03T20:10:19.904Z,46.49
2022-08-03T20:12:51.716Z,45.21
2022-08-03T20:15:30.904Z,45.24
2022-08-03T20:18:02.218Z,45.60
2022-08-03T20:20:35.366Z,47.53
2022-08-03T20:23:12.701Z,47.97
2022-08-03T20:25:58.152Z,49.12
2022-08-03T20:28:53.894Z,49.67
2022-08-03T20:31:36.045Z,49.78
2022-08-03T20:34:05.927Z,50.33
2022-08-03T20:36:36.288Z,50.62
2022-08-03T20:39:09.136Z,50.86
2022-08-03T20:41:40.198Z,50.74
2022-08-03T20:44:09.754Z,51.15
2022-08-03T20:46:53.470Z,51.05
2022-08-03T20:49:31.431Z,51.02
2022-08-03T20:52:18.606Z,51.38
2022-08-03T20:54:49.412Z,51.22
2022-08-03T20:57:19.942Z,51.47
2022-08-03T20:59:51.104Z,51.34
2022-08-03T21:02:29.671Z,51.76
2022-08-03T21:05:08.628Z,51.74
2022-08-03T21:08:06.901Z,51.60
2022-08-03T21:10:38.678Z,51.62
2022-08-03T21:16:12.410Z,51.73
2022-08-03T21:18:54.739Z,51.97
2022-08-03T21:21:25.887Z,51.99
2022-08-03T21:23:56.805Z,51.95
2022-08-03T21:26:28.100Z,51.98
2022-08-03T21:28:58.803Z,52.04
2022-08-03T21:31:28.475Z,52.19
2022-08-03T21:34:03.987Z,52.24
2022-08-03T21:36:36.511Z,52.08
2022-08-03T21:39:09.968Z,52.14
2022-08-03T21:41:41.442Z,52.11
2022-08-03T21:44:11.101Z,51.98
2022-08-03T21:46:43.254Z,52.50
2022-08-03T21:50:05.758Z,52.27
2022-08-03T21:52:07.189Z,52.39
2022-08-03T21:54:40.279Z,52.42
2022-08-03T21:57:33.432Z,52.53
2022-08-03T22:00:19.313Z,52.35
2022-08-03T22:02:54.803Z,52.41
2022-08-03T22:05:42.662Z,52.54
2022-08-03T22:08:16.495Z,52.23
2022-08-03T22:10:47.285Z,52.36
2022-08-03T22:13:42.874Z,52.46
2022-08-03T22:16:08.426Z,52.65
2022-08-03T22:18:41.386Z,52.43
2022-08-03T22:21:13.928Z,52.60
2022-08-03T22:23:52.549Z,52.85
2022-08-03T22:26:32.615Z,52.52
2022-08-03T22:29:09.590Z,52.47
2022-08-03T22:31:59.148Z,52.40
2022-08-03T22:34:29.357Z,52.43
2022-08-03T22:37:01.619Z,52.31
2022-08-03T22:39:32.267Z,52.72
2022-08-03T22:42:02.943Z,52.39
2022-08-03T22:44:32.709Z,52.32
2022-08-03T22:47:02.124Z,52.32
2022-08-03T22:49:31.615Z,52.35
2022-08-03T22:52:04.566Z,52.80
2022-08-03T22:54:35.050Z,52.48
2022-08-03T22:57:04.889Z,52.73
2022-08-03T22:59:39.046Z,52.68
2022-08-03T23:02:21.305Z,52.45
2022-08-03T23:04:56.410Z,52.55
2022-08-03T23:07:42.415Z,52.67
2022-08-03T23:10:14.290Z,52.62
2022-08-03T23:12:46.104Z,52.54
2022-08-03T23:15:16.323Z,52.75
2022-08-03T23:17:58.026Z,52.81
2022-08-03T23:20:29.234Z,52.69
2022-08-03T23:23:01.656Z,52.54
2022-08-03T23:25:31.438Z,53.79
2022-08-03T23:28:05.376Z,54.34
2022-08-03T23:30:38.766Z,53.85
2022-08-03T23:33:09.272Z,54.39
2022-08-03T23:36:27.738Z,54.59
2022-08-03T23:38:47.499Z,55.00
2022-08-03T23:41:17.484Z,54.42
2022-08-03T23:43:53.931Z,54.86
2022-08-03T23:46:24.350Z,53.00
2022-08-03T23:48:56.434Z,49.28
2022-08-03T23:51:44.466Z,49.33
2022-08-03T23:54:30.087Z,48.86
2022-08-03T23:57:15.898Z,47.15
2022-08-03T23:59:45.370Z,46.12
